sensor_id;sensor_type;location;lat;lon;timestamp;pressure;altitude;pressure_sealevel;temperature;humidity
11856;BME280;5987;53.140;8.904;2023-07-30T00:01:24;100874.28;;;15.59;100.00
11856;BME280;5987;53.140;8.904;2023-07-30T00:04:28;100874.88;;;15.65;100.00
11856;BME280;5987;53.140;8.904;2023-07-30T00:07:32;100873.16;;;15.64;100.00
11856;BME280;5987;53.140;8.904;2023-07-30T00:10:36;100872.22;;;15.65;100.00
11856;BME280;5987;53.140;8.904;2023-07-30T00:13:39;100873.84;;;15.67;100.00
11856;BME280;5987;53.140;8.904;2023-07-30T00:16:44;100871.13;;;15.69;100.00
11856;BME280;5987;53.140;8.904;2023-07-30T00:19:48;100876.69;;;15.64;100.00
11856;BME280;5987;53.140;8.904;2023-07-30T00:22:51;100869.50;;;15.66;100.00
11856;BME280;5987;53.140;8.904;2023-07-30T00:25:55;100879.25;;;15.66;100.00
11856;BME280;5987;53.140;8.904;2023-07-30T00:28:59;100877.34;;;15.68;100.00
11856;BME280;5987;53.140;8.904;2023-07-30T00:32:04;100878.72;;;15.59;100.00
11856;BME280;5987;53.140;8.904;2023-07-30T00:35:08;100870.88;;;15.57;100.00
11856;BME280;5987;53.140;8.904;2023-07-30T00:38:12;100879.00;;;15.54;100.00
11856;BME280;5987;53.140;8.904;2023-07-30T00:41:18;100869.34;;;15.53;100.00
11856;BME280;5987;53.140;8.904;2023-07-30T00:44:21;100876.38;;;15.54;100.00
11856;BME280;5987;53.140;8.904;2023-07-30T00:47:27;100870.66;;;15.46;100.00
11856;BME280;5987;53.140;8.904;2023-07-30T00:50:31;100877.38;;;15.52;100.00
11856;BME280;5987;53.140;8.904;2023-07-30T00:53:36;100874.81;;;15.50;100.00
11856;BME280;5987;53.140;8.904;2023-07-30T00:56:47;100876.69;;;15.48;100.00
11856;BME280;5987;53.140;8.904;2023-07-30T00:59:54;100869.88;;;15.44;100.00
11856;BME280;5987;53.140;8.904;2023-07-30T01:03:00;100879.78;;;15.40;100.00
11856;BME280;5987;53.140;8.904;2023-07-30T01:06:04;100872.13;;;15.36;100.00
11856;BME280;5987;53.140;8.904;2023-07-30T01:09:08;100873.06;;;15.35;100.00
11856;BME280;5987;53.140;8.904;2023-07-30T01:12:14;100869.72;;;15.31;100.00
11856;BME280;5987;53.140;8.904;2023-07-30T01:15:18;100865.63;;;15.25;100.00
11856;BME280;5987;53.140;8.904;2023-07-30T01:18:23;100867.34;;;15.26;100.00
11856;BME280;5987;53.140;8.904;2023-07-30T01:21:28;100872.88;;;15.22;100.00
11856;BME280;5987;53.140;8.904;2023-07-30T01:24:31;100871.66;;;15.12;100.00
11856;BME280;5987;53.140;8.904;2023-07-30T01:27:40;100871.75;;;15.10;100.00
11856;BME280;5987;53.140;8.904;2023-07-30T01:30:45;100880.03;;;15.04;100.00
11856;BME280;5987;53.140;8.904;2023-07-30T01:33:54;100881.91;;;15.02;100.00
11856;BME280;5987;53.140;8.904;2023-07-30T01:37:01;100885.59;;;14.99;100.00
11856;BME280;5987;53.140;8.904;2023-07-30T01:40:07;100883.19;;;14.95;100.00
11856;BME280;5987;53.140;8.904;2023-07-30T01:43:12;100883.19;;;14.95;100.00
11856;BME280;5987;53.140;8.904;2023-07-30T01:46:16;100883.19;;;14.95;100.00
11856;BME280;5987;53.140;8.904;2023-07-30T01:49:19;100878.06;;;14.91;100.00
11856;BME280;5987;53.140;8.904;2023-07-30T01:52:24;100879.78;;;14.92;100.00
11856;BME280;5987;53.140;8.904;2023-07-30T01:55:28;100883.59;;;14.87;100.00
11856;BME280;5987;53.140;8.904;2023-07-30T01:58:31;100884.72;;;14.83;100.00
11856;BME280;5987;53.140;8.904;2023-07-30T02:01:35;100886.47;;;14.82;100.00
11856;BME280;5987;53.140;8.904;2023-07-30T02:04:39;100892.56;;;14.84;100.00
11856;BME280;5987;53.140;8.904;2023-07-30T02:07:44;100887.75;;;14.75;100.00
11856;BME280;5987;53.140;8.904;2023-07-30T02:10:55;100894.03;;;14.72;100.00
11856;BME280;5987;53.140;8.904;2023-07-30T02:14:00;100885.38;;;14.70;100.00
11856;BME280;5987;53.140;8.904;2023-07-30T02:17:04;100886.53;;;14.65;100.00
11856;BME280;5987;53.140;8.904;2023-07-30T02:20:09;100895.53;;;14.61;100.00
11856;BME280;5987;53.140;8.904;2023-07-30T02:23:15;100895.47;;;14.62;100.00
11856;BME280;5987;53.140;8.904;2023-07-30T02:26:19;100901.16;;;14.54;100.00
11856;BME280;5987;53.140;8.904;2023-07-30T02:29:22;100898.50;;;14.54;100.00
11856;BME280;5987;53.140;8.904;2023-07-30T02:32:26;100903.09;;;14.51;100.00
11856;BME280;5987;53.140;8.904;2023-07-30T02:35:29;100900.28;;;14.54;100.00
11856;BME280;5987;53.140;8.904;2023-07-30T02:38:34;100898.81;;;14.48;100.00
11856;BME280;5987;53.140;8.904;2023-07-30T02:41:38;100900.06;;;14.41;100.00
11856;BME280;5987;53.140;8.904;2023-07-30T02:44:42;100906.16;;;14.43;100.00
11856;BME280;5987;53.140;8.904;2023-07-30T02:47:45;100906.34;;;14.38;100.00
11856;BME280;5987;53.140;8.904;2023-07-30T02:50:49;100905.50;;;14.38;100.00
11856;BME280;5987;53.140;8.904;2023-07-30T02:53:58;100913.53;;;14.36;100.00
11856;BME280;5987;53.140;8.904;2023-07-30T02:57:02;100912.66;;;14.36;100.00
11856;BME280;5987;53.140;8.904;2023-07-30T03:00:07;100910.97;;;14.35;100.00
11856;BME280;5987;53.140;8.904;2023-07-30T03:03:11;100911.19;;;14.30;100.00
11856;BME280;5987;53.140;8.904;2023-07-30T03:06:15;100906.69;;;14.32;100.00
11856;BME280;5987;53.140;8.904;2023-07-30T03:09:21;100908.69;;;14.27;100.00
11856;BME280;5987;53.140;8.904;2023-07-30T03:12:24;100906.06;;;14.27;100.00
11856;BME280;5987;53.140;8.904;2023-07-30T03:15:28;100907.22;;;14.21;100.00
11856;BME280;5987;53.140;8.904;2023-07-30T03:18:31;100900.38;;;14.17;100.00
11856;BME280;5987;53.140;8.904;2023-07-30T03:21:35;100911.59;;;14.22;100.00
11856;BME280;5987;53.140;8.904;2023-07-30T03:24:41;100906.75;;;14.13;100.00
11856;BME280;5987;53.140;8.904;2023-07-30T03:27:45;100911.34;;;14.10;100.00
11856;BME280;5987;53.140;8.904;2023-07-30T03:30:49;100911.19;;;14.13;100.00
11856;BME280;5987;53.140;8.904;2023-07-30T03:33:53;100905.53;;;14.03;100.00
11856;BME280;5987;53.140;8.904;2023-07-30T03:36:56;100917.31;;;14.13;100.00
11856;BME280;5987;53.140;8.904;2023-07-30T03:40:05;100916.00;;;14.04;100.00
11856;BME280;5987;53.140;8.904;2023-07-30T03:43:09;100909.81;;;14.05;100.00
11856;BME280;5987;53.140;8.904;2023-07-30T03:46:13;100913.91;;;14.11;100.00
11856;BME280;5987;53.140;8.904;2023-07-30T03:49:16;100921.91;;;14.10;100.00
11856;BME280;5987;53.140;8.904;2023-07-30T03:52:20;100921.91;;;14.10;100.00
11856;BME280;5987;53.140;8.904;2023-07-30T03:55:25;100928.84;;;14.12;100.00
11856;BME280;5987;53.140;8.904;2023-07-30T03:58:28;100917.31;;;14.13;100.00
11856;BME280;5987;53.140;8.904;2023-07-30T04:01:32;100926.59;;;14.22;100.00
11856;BME280;5987;53.140;8.904;2023-07-30T04:04:37;100927.28;;;14.26;100.00
11856;BME280;5987;53.140;8.904;2023-07-30T04:07:41;100923.88;;;14.23;100.00
11856;BME280;5987;53.140;8.904;2023-07-30T04:10:45;100920.97;;;14.28;100.00
11856;BME280;5987;53.140;8.904;2023-07-30T04:13:49;100917.50;;;14.28;100.00
11856;BME280;5987;53.140;8.904;2023-07-30T04:16:53;100914.84;;;14.28;100.00
11856;BME280;5987;53.140;8.904;2023-07-30T04:19:56;100918.25;;;14.30;100.00
11856;BME280;5987;53.140;8.904;2023-07-30T04:23:00;100907.69;;;14.30;100.00
11856;BME280;5987;53.140;8.904;2023-07-30T04:26:05;100912.66;;;14.36;100.00
11856;BME280;5987;53.140;8.904;2023-07-30T04:29:08;100908.06;;;14.39;100.00
11856;BME280;5987;53.140;8.904;2023-07-30T04:32:12;100901.88;;;14.40;100.00
11856;BME280;5987;53.140;8.904;2023-07-30T04:35:16;100907.53;;;14.50;100.00
11856;BME280;5987;53.140;8.904;2023-07-30T04:38:20;100890.13;;;14.46;100.00
11856;BME280;5987;53.140;8.904;2023-07-30T04:41:25;100889.50;;;14.58;100.00
11856;BME280;5987;53.140;8.904;2023-07-30T04:44:28;100883.25;;;14.59;100.00
11856;BME280;5987;53.140;8.904;2023-07-30T04:47:32;100888.53;;;14.59;100.00
11856;BME280;5987;53.140;8.904;2023-07-30T04:50:36;100877.19;;;14.75;100.00
11856;BME280;5987;53.140;8.904;2023-07-30T04:53:40;100875.50;;;14.74;100.00
11856;BME280;5987;53.140;8.904;2023-07-30T04:56:45;100884.97;;;14.94;100.00
11856;BME280;5987;53.140;8.904;2023-07-30T04:59:48;100870.75;;;14.97;100.00
11856;BME280;5987;53.140;8.904;2023-07-30T05:02:52;100864.34;;;15.01;100.00
11856;BME280;5987;53.140;8.904;2023-07-30T05:05:56;100861.34;;;15.07;100.00
11856;BME280;5987;53.140;8.904;2023-07-30T05:09:00;100864.94;;;15.06;100.00
11856;BME280;5987;53.140;8.904;2023-07-30T05:12:05;100867.75;;;15.03;100.00
11856;BME280;5987;53.140;8.904;2023-07-30T05:15:09;100870.00;;;15.11;100.00
11856;BME280;5987;53.140;8.904;2023-07-30T05:18:13;100870.22;;;15.06;100.00
11856;BME280;5987;53.140;8.904;2023-07-30T05:21:17;100862.72;;;15.14;100.00
11856;BME280;5987;53.140;8.904;2023-07-30T05:24:20;100867.34;;;15.26;100.00
11856;BME280;5987;53.140;8.904;2023-07-30T05:27:25;100861.94;;;15.44;100.00
11856;BME280;5987;53.140;8.904;2023-07-30T05:30:30;100852.28;;;15.59;100.00
11856;BME280;5987;53.140;8.904;2023-07-30T05:33:34;100856.44;;;15.79;100.00
11856;BME280;5987;53.140;8.904;2023-07-30T05:36:37;100852.78;;;15.96;100.00
11856;BME280;5987;53.140;8.904;2023-07-30T05:39:41;100838.38;;;16.16;100.00
11856;BME280;5987;53.140;8.904;2023-07-30T05:42:46;100842.16;;;16.26;100.00
11856;BME280;5987;53.140;8.904;2023-07-30T05:45:49;100837.59;;;16.14;100.00
11856;BME280;5987;53.140;8.904;2023-07-30T05:48:53;100836.59;;;16.45;100.00
11856;BME280;5987;53.140;8.904;2023-07-30T05:51:57;100833.94;;;16.45;100.00
11856;BME280;5987;53.140;8.904;2023-07-30T05:55:00;100827.00;;;16.28;100.00
11856;BME280;5987;53.140;8.904;2023-07-30T05:58:05;100826.28;;;16.70;100.00
11856;BME280;5987;53.140;8.904;2023-07-30T06:01:09;100823.03;;;16.79;100.00
11856;BME280;5987;53.140;8.904;2023-07-30T06:04:13;100819.91;;;16.87;100.00
11856;BME280;5987;53.140;8.904;2023-07-30T06:07:17;100816.44;;;16.57;100.00
11856;BME280;5987;53.140;8.904;2023-07-30T06:10:21;100824.75;;;16.37;100.00
11856;BME280;5987;53.140;8.904;2023-07-30T06:13:25;100828.34;;;16.64;100.00
11856;BME280;5987;53.140;8.904;2023-07-30T06:16:29;100822.06;;;17.09;100.00
11856;BME280;5987;53.140;8.904;2023-07-30T06:19:33;100820.56;;;16.90;100.00
11856;BME280;5987;53.140;8.904;2023-07-30T06:22:36;100819.78;;;17.03;100.00
11856;BME280;5987;53.140;8.904;2023-07-30T06:25:40;100813.84;;;16.99;100.00
11856;BME280;5987;53.140;8.904;2023-07-30T06:28:45;100815.00;;;17.22;100.00
11856;BME280;5987;53.140;8.904;2023-07-30T06:31:48;100816.41;;;17.55;100.00
11856;BME280;5987;53.140;8.904;2023-07-30T06:34:52;100822.38;;;17.31;100.00
11856;BME280;5987;53.140;8.904;2023-07-30T06:37:56;100818.69;;;17.47;100.00
11856;BME280;5987;53.140;8.904;2023-07-30T06:40:59;100830.91;;;17.22;100.00
11856;BME280;5987;53.140;8.904;2023-07-30T06:44:04;100829.88;;;17.25;100.00
11856;BME280;5987;53.140;8.904;2023-07-30T06:47:08;100840.22;;;17.15;100.00
11856;BME280;5987;53.140;8.904;2023-07-30T06:50:11;100832.78;;;17.75;100.00
11856;BME280;5987;53.140;8.904;2023-07-30T06:53:15;100836.53;;;17.45;100.00
11856;BME280;5987;53.140;8.904;2023-07-30T06:56:19;100828.88;;;17.40;100.00
11856;BME280;5987;53.140;8.904;2023-07-30T06:59:23;100834.28;;;17.79;100.00
11856;BME280;5987;53.140;8.904;2023-07-30T07:02:27;100837.34;;;18.13;100.00
11856;BME280;5987;53.140;8.904;2023-07-30T07:05:32;100845.19;;;18.02;100.00
11856;BME280;5987;53.140;8.904;2023-07-30T07:08:37;100839.06;;;17.87;100.00
11856;BME280;5987;53.140;8.904;2023-07-30T07:11:42;100853.50;;;17.42;100.00
11856;BME280;5987;53.140;8.904;2023-07-30T07:14:47;100846.09;;;17.06;100.00
11856;BME280;5987;53.140;8.904;2023-07-30T07:17:51;100856.91;;;17.44;100.00
11856;BME280;5987;53.140;8.904;2023-07-30T07:20:55;100847.69;;;17.23;100.00
11856;BME280;5987;53.140;8.904;2023-07-30T07:23:59;100852.34;;;17.19;100.00
11856;BME280;5987;53.140;8.904;2023-07-30T07:27:03;100857.41;;;17.37;100.00
11856;BME280;5987;53.140;8.904;2023-07-30T07:30:10;100856.72;;;17.20;100.00
11856;BME280;5987;53.140;8.904;2023-07-30T07:33:14;100859.88;;;18.20;100.00
11856;BME280;5987;53.140;8.904;2023-07-30T07:36:22;100853.28;;;18.26;100.00
11856;BME280;5987;53.140;8.904;2023-07-30T07:39:25;100853.28;;;18.39;100.00
11856;BME280;5987;53.140;8.904;2023-07-30T07:42:30;100850.59;;;18.64;100.00
11856;BME280;5987;53.140;8.904;2023-07-30T07:45:35;100861.88;;;18.68;100.00
11856;BME280;5987;53.140;8.904;2023-07-30T07:48:39;100849.00;;;18.88;100.00
11856;BME280;5987;53.140;8.904;2023-07-30T07:51:43;100847.59;;;18.82;100.00
11856;BME280;5987;53.140;8.904;2023-07-30T07:54:47;100858.81;;;18.23;100.00
11856;BME280;5987;53.140;8.904;2023-07-30T07:57:50;100865.81;;;18.11;100.00
11856;BME280;5987;53.140;8.904;2023-07-30T08:00:56;100861.78;;;18.05;100.00
11856;BME280;5987;53.140;8.904;2023-07-30T08:03:59;100856.88;;;18.89;100.00
11856;BME280;5987;53.140;8.904;2023-07-30T08:07:04;100860.78;;;18.96;100.00
11856;BME280;5987;53.140;8.904;2023-07-30T08:10:08;100863.16;;;18.62;100.00
11856;BME280;5987;53.140;8.904;2023-07-30T08:13:12;100856.19;;;18.98;100.00
11856;BME280;5987;53.140;8.904;2023-07-30T08:16:17;100856.16;;;18.61;100.00
11856;BME280;5987;53.140;8.904;2023-07-30T08:19:21;100863.69;;;18.80;100.00
11856;BME280;5987;53.140;8.904;2023-07-30T08:22:24;100866.06;;;18.59;100.00
11856;BME280;5987;53.140;8.904;2023-07-30T08:25:28;100867.94;;;18.57;100.00
11856;BME280;5987;53.140;8.904;2023-07-30T08:28:31;100861.16;;;18.53;100.00
11856;BME280;5987;53.140;8.904;2023-07-30T08:31:36;100861.16;;;18.53;100.00
11856;BME280;5987;53.140;8.904;2023-07-30T08:34:41;100862.81;;;18.80;100.00
11856;BME280;5987;53.140;8.904;2023-07-30T08:37:44;100857.31;;;18.57;100.00
11856;BME280;5987;53.140;8.904;2023-07-30T08:40:48;100859.84;;;18.72;100.00
11856;BME280;5987;53.140;8.904;2023-07-30T08:43:52;100858.94;;;18.47;100.00
11856;BME280;5987;53.140;8.904;2023-07-30T08:46:57;100867.53;;;18.38;100.00
11856;BME280;5987;53.140;8.904;2023-07-30T08:50:01;100869.03;;;18.42;100.00
11856;BME280;5987;53.140;8.904;2023-07-30T08:53:05;100866.69;;;18.24;100.00
11856;BME280;5987;53.140;8.904;2023-07-30T08:56:09;100863.91;;;18.39;100.00
11856;BME280;5987;53.140;8.904;2023-07-30T08:59:14;100863.50;;;18.19;100.00
11856;BME280;5987;53.140;8.904;2023-07-30T09:02:31;100865.38;;;18.17;100.00
11856;BME280;5987;53.140;8.904;2023-07-30T09:05:38;100859.44;;;18.26;100.00
11856;BME280;5987;53.140;8.904;2023-07-30T09:08:41;100866.91;;;18.47;100.00
11856;BME280;5987;53.140;8.904;2023-07-30T09:11:51;100864.97;;;18.75;100.00
11856;BME280;5987;53.140;8.904;2023-07-30T09:14:56;100858.03;;;19.22;100.00
11856;BME280;5987;53.140;8.904;2023-07-30T09:18:01;100862.41;;;18.99;100.00
11856;BME280;5987;53.140;8.904;2023-07-30T09:21:05;100862.13;;;19.15;100.00
11856;BME280;5987;53.140;8.904;2023-07-30T09:24:09;100854.38;;;19.36;100.00
11856;BME280;5987;53.140;8.904;2023-07-30T09:27:13;100865.47;;;18.80;100.00
11856;BME280;5987;53.140;8.904;2023-07-30T09:30:22;100873.03;;;18.86;100.00
11856;BME280;5987;53.140;8.904;2023-07-30T09:33:28;100877.09;;;18.92;100.00
11856;BME280;5987;53.140;8.904;2023-07-30T09:36:32;100883.16;;;18.81;100.00
11856;BME280;5987;53.140;8.904;2023-07-30T09:39:38;100878.34;;;18.86;100.00
11856;BME280;5987;53.140;8.904;2023-07-30T09:42:44;100884.53;;;18.74;100.00
11856;BME280;5987;53.140;8.904;2023-07-30T09:45:49;100873.78;;;19.25;100.00
11856;BME280;5987;53.140;8.904;2023-07-30T09:48:54;100878.50;;;19.22;100.00
11856;BME280;5987;53.140;8.904;2023-07-30T09:51:58;100887.59;;;19.06;100.00
11856;BME280;5987;53.140;8.904;2023-07-30T09:55:06;100895.88;;;19.14;100.00
11856;BME280;5987;53.140;8.904;2023-07-30T09:58:10;100882.19;;;19.56;100.00
11856;BME280;5987;53.140;8.904;2023-07-30T10:01:15;100870.75;;;19.43;100.00
11856;BME280;5987;53.140;8.904;2023-07-30T10:04:22;100883.50;;;19.26;100.00
11856;BME280;5987;53.140;8.904;2023-07-30T10:07:28;100884.56;;;19.24;100.00
11856;BME280;5987;53.140;8.904;2023-07-30T10:10:32;100887.31;;;19.22;100.00
11856;BME280;5987;53.140;8.904;2023-07-30T10:13:37;100886.16;;;19.26;100.00
11856;BME280;5987;53.140;8.904;2023-07-30T10:16:52;100888.34;;;18.82;100.00
11856;BME280;5987;53.140;8.904;2023-07-30T10:20:20;100888.19;;;19.23;100.00
11856;BME280;5987;53.140;8.904;2023-07-30T10:23:28;100888.84;;;19.75;100.00
11856;BME280;5987;53.140;8.904;2023-07-30T10:26:33;100887.97;;;19.98;100.00
11856;BME280;5987;53.140;8.904;2023-07-30T10:29:40;100887.59;;;19.92;100.00
11856;BME280;5987;53.140;8.904;2023-07-30T10:32:59;100887.06;;;19.62;100.00
11856;BME280;5987;53.140;8.904;2023-07-30T10:36:05;100883.66;;;19.60;100.00
11856;BME280;5987;53.140;8.904;2023-07-30T10:39:15;100871.72;;;19.90;100.00
11856;BME280;5987;53.140;8.904;2023-07-30T10:42:19;100870.03;;;19.65;100.00
11856;BME280;5987;53.140;8.904;2023-07-30T10:45:33;100873.28;;;20.28;100.00
11856;BME280;5987;53.140;8.904;2023-07-30T10:48:39;100872.47;;;20.03;100.00
11856;BME280;5987;53.140;8.904;2023-07-30T10:51:45;100878.59;;;20.28;100.00
11856;BME280;5987;53.140;8.904;2023-07-30T10:54:48;100868.63;;;20.19;100.00
11856;BME280;5987;53.140;8.904;2023-07-30T10:57:52;100867.94;;;20.39;100.00
11856;BME280;5987;53.140;8.904;2023-07-30T11:00:56;100867.56;;;20.33;100.00
11856;BME280;5987;53.140;8.904;2023-07-30T11:04:00;100871.59;;;20.50;100.00
11856;BME280;5987;53.140;8.904;2023-07-30T11:07:05;100874.88;;;20.42;100.00
11856;BME280;5987;53.140;8.904;2023-07-30T11:10:09;100866.22;;;20.27;100.00
11856;BME280;5987;53.140;8.904;2023-07-30T11:13:13;100864.81;;;20.91;100.00
11856;BME280;5987;53.140;8.904;2023-07-30T11:16:17;100855.09;;;20.45;100.00
11856;BME280;5987;53.140;8.904;2023-07-30T11:19:21;100856.69;;;20.70;100.00
11856;BME280;5987;53.140;8.904;2023-07-30T11:22:32;100854.41;;;20.77;100.00
11856;BME280;5987;53.140;8.904;2023-07-30T11:25:36;100848.34;;;20.75;100.00
11856;BME280;5987;53.140;8.904;2023-07-30T11:28:40;100849.31;;;20.85;100.00
11856;BME280;5987;53.140;8.904;2023-07-30T11:31:45;100861.19;;;20.69;100.00
11856;BME280;5987;53.140;8.904;2023-07-30T11:34:50;100845.88;;;20.60;100.00
11856;BME280;5987;53.140;8.904;2023-07-30T11:37:55;100845.97;;;20.25;100.00
11856;BME280;5987;53.140;8.904;2023-07-30T11:41:01;100848.88;;;19.75;100.00
11856;BME280;5987;53.140;8.904;2023-07-30T11:44:05;100858.63;;;19.39;100.00
11856;BME280;5987;53.140;8.904;2023-07-30T11:47:08;100861.25;;;19.27;100.00
11856;BME280;5987;53.140;8.904;2023-07-30T11:50:12;100873.03;;;18.99;100.00
11856;BME280;5987;53.140;8.904;2023-07-30T11:53:18;100873.91;;;18.61;100.00
11856;BME280;5987;53.140;8.904;2023-07-30T11:56:25;100869.09;;;18.66;100.00
11856;BME280;5987;53.140;8.904;2023-07-30T11:59:31;100889.22;;;18.57;100.00
11856;BME280;5987;53.140;8.904;2023-07-30T12:02:35;100888.59;;;18.66;100.00
11856;BME280;5987;53.140;8.904;2023-07-30T12:05:39;100889.41;;;18.80;100.00
11856;BME280;5987;53.140;8.904;2023-07-30T12:08:44;100909.53;;;18.71;100.00
11856;BME280;5987;53.140;8.904;2023-07-30T12:11:51;100945.78;;;18.33;100.00
11856;BME280;5987;53.140;8.904;2023-07-30T12:14:54;101022.63;;;14.73;100.00
11856;BME280;5987;53.140;8.904;2023-07-30T12:17:58;101034.47;;;14.12;100.00
11856;BME280;5987;53.140;8.904;2023-07-30T12:21:02;101044.97;;;13.95;100.00
11856;BME280;5987;53.140;8.904;2023-07-30T12:24:10;101055.97;;;13.85;100.00
11856;BME280;5987;53.140;8.904;2023-07-30T12:27:14;101060.31;;;13.67;100.00
11856;BME280;5987;53.140;8.904;2023-07-30T12:30:18;101055.22;;;13.63;100.00
11856;BME280;5987;53.140;8.904;2023-07-30T12:33:21;101067.09;;;13.73;100.00
11856;BME280;5987;53.140;8.904;2023-07-30T12:36:25;101069.38;;;13.62;100.00
11856;BME280;5987;53.140;8.904;2023-07-30T12:39:30;101066.16;;;13.34;100.00
11856;BME280;5987;53.140;8.904;2023-07-30T12:42:33;101061.31;;;13.65;100.00
11856;BME280;5987;53.140;8.904;2023-07-30T12:45:37;101058.81;;;14.00;100.00
11856;BME280;5987;53.140;8.904;2023-07-30T12:48:41;101050.88;;;14.00;100.00
11856;BME280;5987;53.140;8.904;2023-07-30T12:51:45;101044.53;;;14.40;100.00
11856;BME280;5987;53.140;8.904;2023-07-30T12:54:49;101034.59;;;14.98;100.00
11856;BME280;5987;53.140;8.904;2023-07-30T12:57:53;101015.94;;;15.17;100.00
11856;BME280;5987;53.140;8.904;2023-07-30T13:00:57;101009.69;;;15.68;100.00
11856;BME280;5987;53.140;8.904;2023-07-30T13:04:00;101014.47;;;15.61;100.00
11856;BME280;5987;53.140;8.904;2023-07-30T13:07:04;101020.34;;;15.84;100.00
11856;BME280;5987;53.140;8.904;2023-07-30T13:10:10;101027.00;;;15.91;100.00
11856;BME280;5987;53.140;8.904;2023-07-30T13:13:14;101001.59;;;16.03;100.00
11856;BME280;5987;53.140;8.904;2023-07-30T13:16:17;100994.88;;;15.81;100.00
11856;BME280;5987;53.140;8.904;2023-07-30T13:19:21;100997.19;;;16.34;100.00
11856;BME280;5987;53.140;8.904;2023-07-30T13:22:25;100992.22;;;16.88;100.00
11856;BME280;5987;53.140;8.904;2023-07-30T13:25:30;100978.50;;;17.10;100.00
11856;BME280;5987;53.140;8.904;2023-07-30T13:28:34;100975.56;;;17.01;100.00
11856;BME280;5987;53.140;8.904;2023-07-30T13:31:38;100964.84;;;17.02;100.00
11856;BME280;5987;53.140;8.904;2023-07-30T13:34:43;100955.72;;;17.21;100.00
11856;BME280;5987;53.140;8.904;2023-07-30T13:37:47;100948.63;;;17.07;100.00
11856;BME280;5987;53.140;8.904;2023-07-30T13:40:52;100942.47;;;17.62;100.00
11856;BME280;5987;53.140;8.904;2023-07-30T13:43:56;100936.53;;;17.86;100.00
11856;BME280;5987;53.140;8.904;2023-07-30T13:46:59;100933.09;;;17.84;100.00
11856;BME280;5987;53.140;8.904;2023-07-30T13:50:04;100926.00;;;18.12;100.00
11856;BME280;5987;53.140;8.904;2023-07-30T13:53:08;100929.44;;;18.40;100.00
11856;BME280;5987;53.140;8.904;2023-07-30T13:56:13;100919.22;;;18.46;100.00
11856;BME280;5987;53.140;8.904;2023-07-30T13:59:17;100915.28;;;18.52;100.00
11856;BME280;5987;53.140;8.904;2023-07-30T14:02:21;100917.81;;;18.41;100.00
11856;BME280;5987;53.140;8.904;2023-07-30T14:05:24;100917.31;;;18.74;100.00
11856;BME280;5987;53.140;8.904;2023-07-30T14:08:30;100918.56;;;18.94;100.00
11856;BME280;5987;53.140;8.904;2023-07-30T14:11:35;100912.28;;;18.82;100.00
11856;BME280;5987;53.140;8.904;2023-07-30T14:14:40;100912.41;;;18.68;100.00
11856;BME280;5987;53.140;8.904;2023-07-30T14:17:44;100926.56;;;18.94;100.00
11856;BME280;5987;53.140;8.904;2023-07-30T14:20:47;100916.38;;;19.25;100.00
11856;BME280;5987;53.140;8.904;2023-07-30T14:23:53;100915.91;;;18.81;100.00
11856;BME280;5987;53.140;8.904;2023-07-30T14:26:58;100906.13;;;18.82;100.00
11856;BME280;5987;53.140;8.904;2023-07-30T14:30:02;100901.09;;;19.16;100.00
11856;BME280;5987;53.140;8.904;2023-07-30T14:33:06;100881.41;;;19.43;100.00
11856;BME280;5987;53.140;8.904;2023-07-30T14:36:10;100887.69;;;19.42;100.00
11856;BME280;5987;53.140;8.904;2023-07-30T14:39:14;100894.72;;;19.06;100.00
11856;BME280;5987;53.140;8.904;2023-07-30T14:42:19;100899.63;;;18.86;100.00
11856;BME280;5987;53.140;8.904;2023-07-30T14:45:30;100947.44;;;18.75;100.00
11856;BME280;5987;53.140;8.904;2023-07-30T14:48:34;100965.75;;;16.72;100.00
11856;BME280;5987;53.140;8.904;2023-07-30T14:51:38;100968.88;;;16.04;100.00
11856;BME280;5987;53.140;8.904;2023-07-30T14:54:43;100989.38;;;15.36;100.00
11856;BME280;5987;53.140;8.904;2023-07-30T14:57:48;100996.88;;;15.28;100.00
11856;BME280;5987;53.140;8.904;2023-07-30T15:00:52;100995.00;;;15.30;100.00
11856;BME280;5987;53.140;8.904;2023-07-30T15:03:56;100996.91;;;15.60;100.00
11856;BME280;5987;53.140;8.904;2023-07-30T15:06:59;100978.78;;;16.16;100.00
11856;BME280;5987;53.140;8.904;2023-07-30T15:10:04;100964.63;;;16.01;100.00
11856;BME280;5987;53.140;8.904;2023-07-30T15:13:09;100964.22;;;16.23;100.00
11856;BME280;5987;53.140;8.904;2023-07-30T15:16:12;100961.56;;;16.23;100.00
11856;BME280;5987;53.140;8.904;2023-07-30T15:19:16;100971.94;;;17.02;100.00
11856;BME280;5987;53.140;8.904;2023-07-30T15:22:19;100968.13;;;17.35;100.00
11856;BME280;5987;53.140;8.904;2023-07-30T15:25:23;100972.31;;;16.95;100.00
11856;BME280;5987;53.140;8.904;2023-07-30T15:28:29;100977.34;;;17.29;100.00
11856;BME280;5987;53.140;8.904;2023-07-30T15:31:33;100967.38;;;17.47;100.00
11856;BME280;5987;53.140;8.904;2023-07-30T15:34:36;100960.25;;;17.75;100.00
11856;BME280;5987;53.140;8.904;2023-07-30T15:37:40;100963.78;;;18.43;100.00
11856;BME280;5987;53.140;8.904;2023-07-30T15:40:43;100963.31;;;18.89;100.00
11856;BME280;5987;53.140;8.904;2023-07-30T15:43:49;100949.25;;;18.87;100.00
11856;BME280;5987;53.140;8.904;2023-07-30T15:46:53;100946.44;;;19.27;100.00
11856;BME280;5987;53.140;8.904;2023-07-30T15:49:57;100935.09;;;18.61;100.00
11856;BME280;5987;53.140;8.904;2023-07-30T15:53:00;100927.72;;;18.64;100.00
11856;BME280;5987;53.140;8.904;2023-07-30T15:56:05;100915.28;;;18.78;100.00
11856;BME280;5987;53.140;8.904;2023-07-30T15:59:11;100920.16;;;19.47;100.00
11856;BME280;5987;53.140;8.904;2023-07-30T16:02:15;100909.88;;;19.66;100.00
11856;BME280;5987;53.140;8.904;2023-07-30T16:05:18;100909.75;;;19.31;100.00